Time;durP1;ratioP1;P1;durP2;ratioP2;P2;SDS_P1;SDS_P2;PMS_P1;PMS_P2;Temp;Humidity;BMP_temperature;BMP_pressure;BME280_temperature;BME280_humidity;BME280_pressure;Samples;Min_cycle;Max_cycle;Signal;HPM_P1;HPM_P2
2024/02/28 00:09:20;;;;;;;11.57;8.63;;;4.80;20.00;;;;;;20670748;28;20856;-39
2024/02/28 00:19:22;;;;;;;16.02;9.27;;;4.60;21.00;;;;;;20672558;28;20038;-40
2024/02/28 00:29:22;;;;;;;15.68;9.30;;;4.40;22.30;;;;;;20675703;28;20053;-39
2024/02/28 00:39:23;;;;;;;15.48;10.30;;;4.30;23.40;;;;;;20688500;28;20046;-39
2024/02/28 00:49:24;;;;;;;14.32;9.48;;;4.30;28.50;;;;;;20683564;28;20465;-39
2024/02/28 00:59:24;;;;;;;15.45;10.30;;;4.30;37.80;;;;;;20672236;28;20690;-39
2024/02/28 01:09:25;;;;;;;16.25;10.50;;;4.20;33.10;;;;;;20683255;28;20045;-39
2024/02/28 01:19:25;;;;;;;16.85;9.85;;;4.30;30.00;;;;;;20682403;28;20038;-39
2024/02/28 01:29:26;;;;;;;16.27;10.60;;;4.20;32.40;;;;;;20685035;28;20489;-39
2024/02/28 01:39:27;;;;;;;14.40;10.32;;;4.20;33.00;;;;;;20685388;28;20473;-39
2024/02/28 01:49:27;;;;;;;22.30;11.20;;;4.20;30.00;;;;;;20681875;28;20105;-39
2024/02/28 01:59:31;;;;;;;19.33;10.45;;;4.20;31.50;;;;;;20677606;28;20457;-39
2024/02/28 02:09:34;;;;;;;15.30;10.00;;;4.10;33.80;;;;;;20683535;28;20044;-40
2024/02/28 02:19:35;;;;;;;12.65;9.32;;;4.10;36.80;;;;;;20673951;28;20027;-38
2024/02/28 02:29:35;;;;;;;15.83;9.73;;;4.10;44.20;;;;;;20680120;28;20081;-38
2024/02/28 02:39:36;;;;;;;15.57;9.30;;;4.10;46.90;;;;;;20675939;28;20508;-38
2024/02/28 02:49:37;;;;;;;15.63;10.30;;;4.20;42.40;;;;;;20679286;28;20468;-38
2024/02/28 02:59:37;;;;;;;14.43;9.30;;;4.20;38.40;;;;;;20677807;28;20038;-39
2024/02/28 03:09:38;;;;;;;13.98;9.73;;;4.40;33.50;;;;;;20679263;28;20480;-39
2024/02/28 03:19:38;;;;;;;14.15;9.50;;;4.50;34.50;;;;;;20668619;28;20046;-39
2024/02/28 03:29:39;;;;;;;22.07;10.70;;;4.60;40.80;;;;;;20672503;28;20052;-39
2024/02/28 03:39:40;;;;;;;17.73;10.35;;;4.70;37.10;;;;;;20677933;28;20469;-39
2024/02/28 03:49:40;;;;;;;18.30;10.60;;;4.80;30.00;;;;;;20663932;28;20052;-39
2024/02/28 03:59:41;;;;;;;20.20;12.33;;;4.80;33.90;;;;;;20676371;28;20485;-39
2024/02/28 04:09:42;;;;;;;17.85;11.57;;;4.90;37.80;;;;;;20681432;28;20602;-40
2024/02/28 04:19:43;;;;;;;20.17;11.57;;;4.90;35.10;;;;;;20691676;28;20042;-39
2024/02/28 04:29:43;;;;;;;23.55;11.82;;;4.90;33.70;;;;;;20686007;28;20564;-39
2024/02/28 04:39:44;;;;;;;21.42;12.77;;;4.90;40.40;;;;;;20680363;28;20107;-38
2024/02/28 04:49:44;;;;;;;19.73;11.63;;;5.00;47.20;;;;;;20686705;28;20069;-39
2024/02/28 04:59:46;;;;;;;24.00;12.18;;;5.00;39.20;;;;;;20684695;28;20038;-39
2024/02/28 05:09:47;;;;;;;25.20;13.38;;;5.10;43.70;;;;;;20680290;28;20038;-39
2024/02/28 05:19:47;;;;;;;20.77;11.98;;;5.20;46.20;;;;;;20684911;28;20038;-39
2024/02/28 05:29:48;;;;;;;21.27;12.82;;;5.30;45.20;;;;;;20675116;28;20089;-39
2024/02/28 05:39:49;;;;;;;23.57;13.27;;;5.30;55.30;;;;;;20674211;28;20046;-39
2024/02/28 05:49:49;;;;;;;28.83;14.20;;;5.30;63.50;;;;;;20675284;28;20480;-39
2024/02/28 05:59:50;;;;;;;25.33;14.90;;;5.40;71.90;;;;;;20673871;28;20057;-39
2024/02/28 06:09:50;;;;;;;28.88;16.13;;;5.50;79.20;;;;;;20680817;28;20349;-39
2024/02/28 06:19:51;;;;;;;33.70;17.33;;;5.60;76.50;;;;;;20679764;28;20314;-39
2024/02/28 06:29:52;;;;;;;30.88;16.77;;;5.60;83.10;;;;;;20671088;28;20122;-39
2024/02/28 06:39:53;;;;;;;26.98;18.05;;;5.80;79.30;;;;;;20667390;28;20038;-39
2024/02/28 06:49:54;;;;;;;28.50;17.70;;;5.80;80.80;;;;;;20676736;28;20286;-39
2024/02/28 06:59:54;;;;;;;30.30;18.90;;;5.80;85.30;;;;;;20675931;28;20041;-39
2024/02/28 07:09:55;;;;;;;30.67;18.60;;;5.80;95.20;;;;;;20678277;28;20434;-40
2024/02/28 07:19:55;;;;;;;30.80;19.42;;;5.70;97.60;;;;;;20675587;28;20296;-39
2024/02/28 07:29:56;;;;;;;31.52;19.13;;;5.70;98.90;;;;;;20673476;28;20560;-39
2024/02/28 07:39:57;;;;;;;33.85;19.42;;;5.80;99.90;;;;;;20678893;28;20057;-39
2024/02/28 07:49:57;;;;;;;31.80;20.00;;;5.80;99.90;;;;;;20691091;28;20046;-39
2024/02/28 07:59:58;;;;;;;34.05;22.52;;;5.80;99.90;;;;;;20692200;28;20844;-38
2024/02/28 08:09:59;;;;;;;32.33;21.23;;;5.90;99.90;;;;;;20689422;28;20038;-39
2024/02/28 08:19:59;;;;;;;42.30;23.67;;;6.00;99.90;;;;;;20694628;28;20049;-39
2024/02/28 08:30:01;;;;;;;32.70;20.35;;;6.20;99.90;;;;;;20693437;28;20493;-39
2024/02/28 08:40:01;;;;;;;36.70;20.75;;;6.40;99.90;;;;;;20687214;28;20612;-39
2024/02/28 08:50:02;;;;;;;31.83;20.93;;;6.50;99.90;;;;;;20691438;28;20085;-39
2024/02/28 09:00:03;;;;;;;30.55;19.85;;;6.60;99.90;;;;;;20691971;28;20092;-39
2024/02/28 09:10:05;;;;;;;31.77;18.45;;;6.80;99.90;;;;;;20692773;28;20042;-39
2024/02/28 09:20:07;;;;;;;30.80;19.17;;;6.90;99.90;;;;;;20691293;28;20038;-39
2024/02/28 09:30:08;;;;;;;27.52;17.60;;;7.10;99.90;;;;;;20689154;28;20161;-39
2024/02/28 09:40:10;;;;;;;29.17;16.58;;;7.20;97.70;;;;;;20686332;28;20030;-39
2024/02/28 09:50:12;;;;;;;24.80;16.42;;;7.40;72.70;;;;;;20686381;28;20058;-39
2024/02/28 10:00:14;;;;;;;27.70;19.00;;;7.50;65.00;;;;;;20682303;28;20576;-39
2024/02/28 10:10:16;;;;;;;29.40;20.67;;;7.40;70.30;;;;;;20682866;28;20533;-39
2024/02/28 10:20:17;;;;;;;30.13;19.83;;;7.70;67.80;;;;;;20680654;28;20058;-39
2024/02/28 10:30:19;;;;;;;30.08;20.02;;;8.20;55.60;;;;;;20672359;28;20041;-39
2024/02/28 10:40:21;;;;;;;32.53;19.95;;;8.40;46.00;;;;;;20669116;28;20042;-39
2024/02/28 10:50:24;;;;;;;27.55;18.63;;;8.80;39.70;;;;;;20669393;28;20556;-39
2024/02/28 11:00:25;;;;;;;26.20;18.75;;;9.30;22.10;;;;;;20666040;28;20042;-39
2024/02/28 11:10:33;;;;;;;27.92;19.02;;;9.70;18.60;;;;;;20654795;28;20094;-39
2024/02/28 11:20:34;;;;;;;26.10;17.73;;;9.70;6.30;;;;;;20668819;28;20090;-39
2024/02/28 11:30:35;;;;;;;28.45;20.20;;;9.40;7.10;;;;;;20659285;28;20099;-39
2024/02/28 11:40:36;;;;;;;29.90;20.70;;;9.40;12.70;;;;;;20661665;28;20042;-39
2024/02/28 11:50:37;;;;;;;30.30;19.98;;;9.30;11.60;;;;;;20661128;28;20038;-39
2024/02/28 12:00:51;;;;;;;27.77;18.60;;;9.40;11.50;;;;;;20659387;28;20041;-39
2024/02/28 12:10:52;;;;;;;27.55;17.17;;;9.70;10.20;;;;;;20657383;28;20057;-40
2024/02/28 12:20:53;;;;;;;26.80;17.55;;;10.40;1.00;;;;;;20660568;28;20069;-39
2024/02/28 12:30:53;;;;;;;25.40;15.23;;;10.00;1.00;;;;;;20656329;28;20042;-39
2024/02/28 12:40:54;;;;;;;24.45;16.52;;;9.70;1.00;;;;;;20652784;28;20523;-39
2024/02/28 12:50:55;;;;;;;23.25;16.83;;;9.80;1.00;;;;;;20672984;28;20153;-39
2024/02/28 13:00:55;;;;;;;26.40;18.45;;;9.90;1.00;;;;;;20669838;28;20037;-39
2024/02/28 13:10:57;;;;;;;24.13;17.07;;;9.90;1.00;;;;;;20668180;28;20576;-39
2024/02/28 13:20:57;;;;;;;25.05;16.98;;;9.60;1.00;;;;;;20668941;28;20627;-39
2024/02/28 13:31:03;;;;;;;27.38;18.83;;;9.60;1.60;;;;;;20669170;28;20387;-39
2024/02/28 13:41:04;;;;;;;40.65;24.50;;;9.70;1.00;;;;;;20664098;28;20509;-39
2024/02/28 13:51:05;;;;;;;43.15;27.48;;;9.70;1.90;;;;;;20671318;28;20569;-39
2024/02/28 14:01:06;;;;;;;43.55;27.25;;;9.70;1.00;;;;;;20671521;28;22162;-39
2024/02/28 14:11:07;;;;;;;44.22;27.60;;;9.70;2.30;;;;;;20663006;28;20456;-39
2024/02/28 14:21:08;;;;;;;45.97;28.52;;;9.70;2.60;;;;;;20665142;28;20038;-39
2024/02/28 14:31:08;;;;;;;41.03;26.10;;;9.70;1.00;;;;;;20647448;28;20380;-39
2024/02/28 14:41:10;;;;;;;42.35;25.63;;;9.70;1.70;;;;;;20658952;28;20049;-39
2024/02/28 14:51:11;;;;;;;41.20;23.52;;;9.50;5.80;;;;;;20663897;28;20049;-39
2024/02/28 15:01:11;;;;;;;45.55;26.23;;;9.50;7.00;;;;;;20658943;28;20092;-39
2024/02/28 15:11:12;;;;;;;40.25;23.00;;;9.40;9.00;;;;;;20653040;28;20061;-39
2024/02/28 15:21:13;;;;;;;37.72;22.25;;;9.50;12.70;;;;;;20666359;28;20065;-39
2024/02/28 15:31:13;;;;;;;35.97;20.63;;;9.40;13.70;;;;;;20662987;28;20398;-39
2024/02/28 15:41:14;;;;;;;32.45;19.13;;;9.40;17.10;;;;;;20666031;28;20045;-39
2024/02/28 15:51:14;;;;;;;38.60;21.27;;;9.30;21.50;;;;;;20665147;28;20304;-39
2024/02/28 16:01:15;;;;;;;33.13;20.35;;;9.20;34.60;;;;;;20668940;28;20046;-39
2024/02/28 16:11:15;;;;;;;35.90;20.05;;;9.10;46.80;;;;;;20685493;28;20042;-39
2024/02/28 16:21:17;;;;;;;36.53;20.63;;;8.90;90.30;;;;;;20682255;28;20514;-39
2024/02/28 16:31:18;;;;;;;38.28;21.60;;;8.70;99.90;;;;;;20683803;28;20042;-39
2024/02/28 16:41:19;;;;;;;41.47;20.77;;;8.70;99.90;;;;;;20680174;28;20104;-39
2024/02/28 16:51:19;;;;;;;33.97;19.73;;;8.70;99.90;;;;;;20682507;28;20405;-39
2024/02/28 17:01:23;;;;;;;30.08;18.05;;;8.70;99.90;;;;;;20677081;28;20398;-39
2024/02/28 17:11:24;;;;;;;34.25;18.88;;;8.80;99.90;;;;;;20675047;28;20054;-39
2024/02/28 17:21:25;;;;;;;30.83;18.38;;;8.80;99.90;;;;;;20678830;28;20259;-39
2024/02/28 17:31:25;;;;;;;29.95;17.05;;;8.90;99.90;;;;;;20666262;28;20430;-39
2024/02/28 17:41:26;;;;;;;23.70;15.35;;;8.90;99.90;;;;;;20668417;28;20054;-39
2024/02/28 17:51:26;;;;;;;31.08;15.55;;;8.90;99.90;;;;;;20659509;28;20512;-39
2024/02/28 18:01:28;;;;;;;26.50;15.38;;;8.80;99.90;;;;;;20643480;28;20137;-39
2024/02/28 18:11:30;;;;;;;27.98;14.85;;;8.80;99.90;;;;;;20644043;28;20858;-39
2024/02/28 18:21:34;;;;;;;27.70;14.63;;;8.90;99.90;;;;;;20652726;28;20526;-39
2024/02/28 18:31:35;;;;;;;28.88;15.52;;;8.90;96.50;;;;;;20659698;28;20097;-39
2024/02/28 18:41:36;;;;;;;22.95;14.10;;;8.90;84.90;;;;;;20665941;28;20038;-39
2024/02/28 18:51:36;;;;;;;22.25;14.20;;;8.90;83.30;;;;;;20650032;28;20056;-39
2024/02/28 19:01:38;;;;;;;24.08;13.23;;;9.00;64.70;;;;;;20646325;28;20497;-39
2024/02/28 19:11:38;;;;;;;24.73;12.63;;;8.90;64.20;;;;;;20643643;28;20056;-39
2024/02/28 19:21:39;;;;;;;19.63;12.65;;;8.90;56.40;;;;;;20652540;28;20121;-39
2024/02/28 19:31:40;;;;;;;19.30;12.55;;;9.00;52.70;;;;;;20648859;28;20054;-39
2024/02/28 19:41:40;;;;;;;17.60;12.00;;;9.00;48.30;;;;;;20662848;28;20149;-39
2024/02/28 19:51:43;;;;;;;18.10;10.73;;;9.00;46.30;;;;;;20668713;28;20065;-39
2024/02/28 20:01:44;;;;;;;15.32;10.77;;;8.90;43.00;;;;;;20661825;28;20163;-39
2024/02/28 20:11:45;;;;;;;15.43;10.35;;;9.00;38.60;;;;;;20659383;28;20042;-39
2024/02/28 20:21:45;;;;;;;21.60;10.18;;;9.00;37.70;;;;;;20665776;28;20188;-39
2024/02/28 20:31:46;;;;;;;14.00;8.80;;;9.00;36.30;;;;;;20673595;28;21631;-39
2024/02/28 20:41:46;;;;;;;10.57;7.15;;;8.90;34.60;;;;;;20674723;28;20049;-39
2024/02/28 20:51:47;;;;;;;11.00;7.32;;;8.80;34.10;;;;;;20671842;28;20545;-39
2024/02/28 21:01:48;;;;;;;12.45;8.38;;;8.70;31.70;;;;;;20670026;28;20486;-39
2024/02/28 21:12:01;;;;;;;13.02;8.50;;;8.60;32.70;;;;;;20677153;28;20049;-39
2024/02/28 21:22:02;;;;;;;13.80;9.38;;;8.60;31.20;;;;;;20672608;28;20088;-39
2024/02/28 21:32:06;;;;;;;14.57;9.43;;;8.30;35.00;;;;;;20673841;28;20052;-39
2024/02/28 21:42:06;;;;;;;18.55;9.40;;;8.20;42.90;;;;;;20672085;28;20109;-39
2024/02/28 21:52:07;;;;;;;16.95;10.40;;;8.00;48.50;;;;;;20669841;28;20618;-39
2024/02/28 22:02:09;;;;;;;19.95;11.10;;;7.90;53.80;;;;;;20676147;28;20121;-39
2024/02/28 22:12:11;;;;;;;21.67;11.75;;;7.80;53.90;;;;;;20675483;28;20046;-39
2024/02/28 22:22:12;;;;;;;17.83;11.52;;;7.60;65.00;;;;;;20662075;28;20045;-39
2024/02/28 22:32:12;;;;;;;20.80;12.50;;;7.60;64.50;;;;;;20667408;28;20046;-39
2024/02/28 22:42:13;;;;;;;18.27;11.73;;;7.60;71.60;;;;;;20683122;28;20045;-39
2024/02/28 22:52:13;;;;;;;19.92;12.73;;;7.70;66.90;;;;;;20682709;28;20512;-40
2024/02/28 23:02:14;;;;;;;18.88;11.95;;;7.60;59.70;;;;;;20685525;28;20378;-39
2024/02/28 23:12:15;;;;;;;20.73;12.50;;;7.60;59.30;;;;;;20683537;28;20057;-39
2024/02/28 23:22:16;;;;;;;17.48;12.18;;;7.50;59.10;;;;;;20689999;28;20057;-39
2024/02/28 23:32:17;;;;;;;20.80;12.77;;;7.50;59.00;;;;;;20686367;28;20035;-39
2024/02/28 23:42:18;;;;;;;21.33;13.30;;;7.60;60.20;;;;;;20683717;28;20034;-39
2024/02/28 23:52:18;;;;;;;25.43;13.43;;;7.70;49.60;;;;;;20686186;28;20049;-39
